Pagina principale
METAR-TAF:

METAR-TAF

Aeroporti :

Aeroporto di Viterbo

Viterbo, Italia

latitudine: 42-26N, longitudine: 012-03E, altezza: 300 m

Osservazione

Il bollettino è stato emesso 37 minuti fa, alle 12:55 UTC
Vento 4 kt da nord-est
Temperature 16°C
Umidità 29%
Pressione 1031 hPa
Visibilità 10 km o più
nessuna nube inferiore a 1500 m e nessun cumulonembo

METAR: LIRV 021255Z 05004KT CAVOK 16/M02 Q1031 RMK SKC MON E SE LIB NC VIS MIN 9999 WIND THR04/////KT BLU

Ora: 14:32 (13:32 UTC)

Previsione

Il bollettino è stato emesso 2 ore e 35 minuti fa, alle 10:57 UTC
Previsione valida dal 02 alle 12 UTC al 02 alle 21 UTC
Vento 10 kt da nord/nord-est
Visibilità 10 km o più
nessuna nube inferiore a 1500 m e nessun cumulonembo
Evoluzione graduale
dal 02 alle 12 UTC al 02 alle 14 UTC
Vento 6 kt da ovest/sud-ovest

TAF: LIRV 021057Z 0212/0221 03010KT CAVOK BECMG 0212/0214 24006KT

Osservazioni e previsioni meteorologiche di più di 4000 aeroporti (messaggi METAR e TAF).

Le stazioni disponibili sono rappresentate dai dischi gialli e rossi sulla carta.

Puntare il mouse per vedere il nome della stazione.

Clicca sopra per visualizzare le osservazioni e previsioni meteorologiche.

Per cambiare la mappa : fare clic sui pulsanti verdi con una croce nera per ingrandire, il pulsante verde con un trattino per diminuire, o sulla freccia verde per le mappe adiacenti.


METAR-TAF: